Main page
METAR-TAF:

METAR-TAF

Airports :

Princeton Aerodrome

Princeton, British Columbia, Canada

latitude: 49-28N, longitude: 120-31W, elevation: 700 m

Current weather observation

The report was made 10 hours and 17 minutes ago, at 01:00 UTC
Calm wind
Temperature 4°C
Humidity 81%
Pressure 1016 hPa
Visibility: 16.1 km
Scattered clouds at a height of 2200 ft
Broken clouds at a height of 5000 ft
Broken clouds at a height of 5600 ft
Overcast at a height of 6700 ft

METAR: CYDC 220100Z 00000KT 10SM SCT022 BKN050 BKN056 OVC067 04/01 A2999 RMK SC4SC1SC2AC1 LAST STFD OBS/NEXT 22 1500Z SLP176

Time: 03:17 (11:17 UTC)


TAF: missing

Weather observations and forecasts of more than 4000 airports (METAR and TAF reports).

The available stations are represented by yellow and red dots on the map.

Hover mouse over dot to see the name of the station.

Then click to see weather observations and forecasts.

To change the map : click on the green buttons with a black cross to zoom in, on the green button with a dash to zoom out, or on the green arrows for adjacent maps.


METAR-TAF: